Aérodrome :
LOGIN :

S'inscrire | Disclaimer

   EN    FR    IT 

 










Légende :    VFR   VFR Marginal   IFR   IFR Intensif   IFR Très Intensif
Visi : 
Plafond : 
>= 8 km
>= 3000ft
5 à 8 km
1000 à 3000 ft
1500m à 5 km
500 à 1000 ft
800 à 1500m
200 à 500 ft
< 800m
< 200 ft
Symboles :   Orages  Brouillard  Fortes neiges  Fortes précipitations  Vent > 20 kt
SIGMETs :   Divers  Orages  Givrage  Turbulence  Onde Orograph.  Cendres Volcan.







- Altitude de l'aérodrome : 386 ft
- Code IATA : QOE


ETNN - Nörvenich Airforce Base

DERNIER METAR :
  • 231520Z 26028G39KT 9999 FEW018 BKN220 10/04 Q0992 BLU+

METARs EXPIRÉS :
  • 231420Z 24021G32KT 9999 -SHRA SCT018 BKN035 11/06 Q0993 BLU
  • 231345Z 24022G39KT 9999 FEW018 SCT035 BKN220 11/05 Q0993 BLU+
  • 231320Z 23015G25KT 9999 FEW018 BKN035 11/05 Q0994 BLU

TAF TAF ETNN
Valide du 23 à 15h jusqu'au 24 à 00h UTC


231400Z 2315/2324 24020G35KT 9999 NSW SCT015 BKN030
TEMPO 2315/2324 26025G45KT 4000 SHRA BKN010TCU
PROB30 2316/2324 27030G55KT 3000 SHRA BKN007CB BY ETGL
Pas de NOTAMs connus pour ce terrain.
1 SIGMET publié pour la FIR Langen (EDGG) :
 
Turbulence forte
EDGG SIGMET 1 VALID 231430/231830 EDZF
EDGG LANGEN FIR SEV TURB FCST NW OF LINE N4859 E00810 - N5013 E01016 SFC/FL050 MOV E 30KT NC=



MET'MAP, la Météo Aéronautique d'un coup d'oeil ! - Copyright ORBIFLY Décembre 2007 - Disclaimer

ORBIFLY MET'MAP TEAM :

Programmation & Développement : Alexandra Zaïnal
Conception & Développement : Baudouin d'Aumeries
Co-Programmation & Développement : Marc-Olivier Méhu
Soutien technique & logistique : Manuel Goepfert

Contact : metmap@orbifly.com




SOURCES & CREDITS :

   NOAA